メインページ
METAR-TAF:

METAR-TAF

空港 :

ラパス, ボリビア

エル・アルト国際空港

緯度: 16-31S, 経度: 068-11W, 海抜: 4058m

現時点の気象観測

当レポートは1時間1分前の05:00(UTC)に作成
変向風 2kt
気温 5°C
湿度 93%
気圧 1036 hPa
視程: 4000m
高度200ftの雲はほとんどない
高度7000ftの雲は散在している
近辺で霧

METAR: SLLP 250500Z VRB02KT 4000E VCFG FEW002 SCT070 05/04 Q1036

時間: 02:01 (06:01 UTC)

予報

当レポートは1時間31分前の04:30(UTC)に作成
予報は25日の 06時(UTC)から 26日の 06時(UTC)まで有効
の風 5kt
視程: 4000m
高度300ftの雲はほとんどない
高度1300ftの雲は散在している
高度7000ftの千切れ雲あり
近辺で霧
確率 30%
25日の 08時(UTC)から 25日の 10時(UTC)まで
25日の 11時(UTC)から 25日の 13時(UTC)まで徐々に
視程10km以上
高度1500ftの雲は散在している
25日の 15時(UTC)から 25日の 17時(UTC)まで徐々に
東/南東の風 13kt
25日の 18時(UTC)から 25日の 21時(UTC)まで一時的に
視程: 5000m
高度2000ftの雲は散在している
高度2300ftの雲はほとんどない, 積乱雲.
高度7000ftの雲は散在している
近辺でにわか雨
26日の 00時(UTC)から 26日の 01時(UTC)まで徐々に
東/北東の風 5kt

TAF: SLLP 250430Z 2506/2606 08005KT 4000E VCFG FEW003 SCT013 BKN070 TX15/2520Z TN04/2510Z PROB30 2508/2510 RA BECMG 2511/2513 9999 NSW SCT015 BECMG 2515/2517 12013KT TEMPO 2518/2521 5000 VCSH SCT020 FEW023CB SCT070 BECMG 2600/2601 07005KT

4,000以上の空港の気象観測と天気予報(METAR報とTAF報)

利用可能な観測所は地図上に黄色い丸と赤い丸で示す。

丸の上にカーソルを重ねると観測所名を参照できる。

次にクリックすると気象観測と天気予報を参照できる。

マップの切り替え:黒色「×」印の緑ボタンをクリックして拡大、「-」印の緑ボタンをクリックして縮小、緑色の三角印をクリックして隣りの地図に切り替え


METAR-TAF: